KAGS/AGS METAR and TAF weather

Enter ICAO airport designator
Station Type Date Time Source
KAGS METAR 2018/04/23 10:53 UTC NOAA

KAGS 231053Z 11012G17KT 10SM -RA OVC013 16/14 A3006 RMK AO2 SLP178 P0000 T01610144


Station Type Date Time Source
KAGS Decoded METAR 2018/04/23 10:53 UTC NOAA

AUGUSTA BUSH FIELD, GA, United States (KAGS) 33-22N 081-58W 44M
Apr 23, 2018 - 06:53 AM EDT / 2018.04.23 1053 UTC
Wind: from the ESE (110 degrees) at 14 MPH (12 KT) gusting to 20 MPH (17 KT):0
Visibility: 10 mile(s):0
Sky conditions: overcast
Weather: light rain
Precipitation last hour: A trace
Temperature: 61.0 F (16.1 C)
Dew Point: 57.9 F (14.4 C)
Relative Humidity: 89%
Pressure (altimeter): 30.06 in. Hg (1017 hPa)
ob: KAGS 231053Z 11012G17KT 10SM -RA OVC013 16/14 A3006 RMK AO2 SLP178 P0000 T01610144
cycle: 11

Station Type Date Time Source
KAGS TAF 2018/04/23 09:16 UTC NOAA

TAF
AMD KAGS 230914Z 2309/2406 11013KT 6SM -RA OVC015 WS015/12045KT
FM231500 10014G22KT 3SM -RA BR OVC012
TEMPO 2315/2319 2SM SHRA BKN007
FM232300 09012G22KT 4SM -RA BR OVC015


Example: see airport list